sensor_id;sensor_type;location;lat;lon;timestamp;pressure;altitude;pressure_sealevel;temperature
45034;BMP280;30771;47.988;-4.186;2022-10-16T06:02:00;99763.59;;;12.61
45034;BMP280;30771;47.988;-4.186;2022-10-16T06:04:25;99764.47;;;12.66
45034;BMP280;30771;47.988;-4.186;2022-10-16T06:06:50;99751.97;;;12.62
45034;BMP280;30771;47.988;-4.186;2022-10-16T06:09:16;99750.25;;;12.67
45034;BMP280;30771;47.988;-4.186;2022-10-16T06:11:41;99748.19;;;12.69
45034;BMP280;30771;47.988;-4.186;2022-10-16T06:14:08;99750.13;;;12.74
45034;BMP280;30771;47.988;-4.186;2022-10-16T06:16:35;99743.34;;;12.78
45034;BMP280;30771;47.988;-4.186;2022-10-16T06:19:00;99726.59;;;12.72
45034;BMP280;30771;47.988;-4.186;2022-10-16T06:21:27;99731.28;;;12.82
45034;BMP280;30771;47.988;-4.186;2022-10-16T06:23:56;99740.56;;;12.84
45034;BMP280;30771;47.988;-4.186;2022-10-16T06:26:24;99734.47;;;12.84
45034;BMP280;30771;47.988;-4.186;2022-10-16T06:28:50;99730.81;;;12.73
45034;BMP280;30771;47.988;-4.186;2022-10-16T06:31:16;99749.88;;;12.87
45034;BMP280;30771;47.988;-4.186;2022-10-16T06:33:41;99727.72;;;12.76
45034;BMP280;30771;47.988;-4.186;2022-10-16T06:36:12;99736.09;;;12.85
45034;BMP280;30771;47.988;-4.186;2022-10-16T06:38:38;99744.91;;;12.90
45034;BMP280;30771;47.988;-4.186;2022-10-16T06:41:04;99737.38;;;12.82
45034;BMP280;30771;47.988;-4.186;2022-10-16T06:43:30;99747.22;;;12.87
45034;BMP280;30771;47.988;-4.186;2022-10-16T06:45:57;99726.53;;;12.84
45034;BMP280;30771;47.988;-4.186;2022-10-16T06:48:23;99740.56;;;12.96
45034;BMP280;30771;47.988;-4.186;2022-10-16T06:50:59;99738.59;;;12.91
45034;BMP280;30771;47.988;-4.186;2022-10-16T06:53:27;99751.66;;;12.98
45034;BMP280;30771;47.988;-4.186;2022-10-16T06:55:53;99745.59;;;12.97
45034;BMP280;30771;47.988;-4.186;2022-10-16T06:58:19;99749.97;;;13.03
45034;BMP280;30771;47.988;-4.186;2022-10-16T07:00:44;99732.72;;;13.01
45034;BMP280;30771;47.988;-4.186;2022-10-16T07:03:10;99709.53;;;12.91
45034;BMP280;30771;47.988;-4.186;2022-10-16T07:05:39;99718.13;;;12.98
45034;BMP280;30771;47.988;-4.186;2022-10-16T07:08:05;99716.38;;;13.04
45034;BMP280;30771;47.988;-4.186;2022-10-16T07:10:31;99716.16;;;13.05
45034;BMP280;30771;47.988;-4.186;2022-10-16T07:12:56;99726.81;;;13.10
45034;BMP280;30771;47.988;-4.186;2022-10-16T07:15:21;99720.72;;;13.10
45034;BMP280;30771;47.988;-4.186;2022-10-16T07:17:47;99728.66;;;13.21
45034;BMP280;30771;47.988;-4.186;2022-10-16T07:20:12;99718.28;;;13.20
45034;BMP280;30771;47.988;-4.186;2022-10-16T07:22:37;99717.72;;;13.18
45034;BMP280;30771;47.988;-4.186;2022-10-16T07:25:03;99710.84;;;13.17
45034;BMP280;30771;47.988;-4.186;2022-10-16T07:27:28;99738.16;;;13.34
45034;BMP280;30771;47.988;-4.186;2022-10-16T07:29:54;99700.75;;;13.14
45034;BMP280;30771;47.988;-4.186;2022-10-16T07:32:19;99737.63;;;13.37
45034;BMP280;30771;47.988;-4.186;2022-10-16T07:34:45;99736.97;;;13.42
45034;BMP280;30771;47.988;-4.186;2022-10-16T07:37:10;99700.69;;;13.25
45034;BMP280;30771;47.988;-4.186;2022-10-16T07:39:35;99718.75;;;13.45
45034;BMP280;30771;47.988;-4.186;2022-10-16T07:42:00;99714.28;;;13.46
45034;BMP280;30771;47.988;-4.186;2022-10-16T07:44:26;99720.31;;;13.58
45034;BMP280;30771;47.988;-4.186;2022-10-16T07:46:51;99695.78;;;13.46
45034;BMP280;30771;47.988;-4.186;2022-10-16T07:49:16;99723.94;;;13.68
45034;BMP280;30771;47.988;-4.186;2022-10-16T07:51:41;99685.34;;;13.56
45034;BMP280;30771;47.988;-4.186;2022-10-16T07:54:11;99715.91;;;13.80
45034;BMP280;30771;47.988;-4.186;2022-10-16T07:56:36;99696.03;;;13.77
45034;BMP280;30771;47.988;-4.186;2022-10-16T07:59:02;99712.88;;;13.88
45034;BMP280;30771;47.988;-4.186;2022-10-16T08:01:27;99717.19;;;13.94
45034;BMP280;30771;47.988;-4.186;2022-10-16T08:03:52;99720.19;;;13.97
45034;BMP280;30771;47.988;-4.186;2022-10-16T08:06:19;99714.97;;;14.02
45034;BMP280;30771;47.988;-4.186;2022-10-16T08:08:44;99698.69;;;13.94
45034;BMP280;30771;47.988;-4.186;2022-10-16T08:11:10;99718.97;;;14.05
45034;BMP280;30771;47.988;-4.186;2022-10-16T08:13:36;99713.81;;;13.98
45034;BMP280;30771;47.988;-4.186;2022-10-16T08:16:01;99724.59;;;14.08
45034;BMP280;30771;47.988;-4.186;2022-10-16T08:18:27;99714.16;;;14.02
45034;BMP280;30771;47.988;-4.186;2022-10-16T08:20:57;99679.25;;;13.88
45034;BMP280;30771;47.988;-4.186;2022-10-16T08:23:22;99687.06;;;13.95
45034;BMP280;30771;47.988;-4.186;2022-10-16T08:25:48;99701.25;;;14.05
45034;BMP280;30771;47.988;-4.186;2022-10-16T08:28:13;99700.28;;;14.11
45034;BMP280;30771;47.988;-4.186;2022-10-16T08:30:38;99691.50;;;14.11
45034;BMP280;30771;47.988;-4.186;2022-10-16T08:33:04;99691.88;;;14.14
45034;BMP280;30771;47.988;-4.186;2022-10-16T08:35:29;99681.34;;;14.19
45034;BMP280;30771;47.988;-4.186;2022-10-16T08:37:55;99662.69;;;14.09
45034;BMP280;30771;47.988;-4.186;2022-10-16T08:40:27;99671.22;;;14.16
45034;BMP280;30771;47.988;-4.186;2022-10-16T08:48:58;99683.47;;;14.39
45034;BMP280;30771;47.988;-4.186;2022-10-16T08:51:30;99695.72;;;14.45
45034;BMP280;30771;47.988;-4.186;2022-10-16T08:54:01;99671.97;;;14.33
45034;BMP280;30771;47.988;-4.186;2022-10-16T08:56:29;99653.13;;;14.30
45034;BMP280;30771;47.988;-4.186;2022-10-16T08:58:55;99655.31;;;14.33
45034;BMP280;30771;47.988;-4.186;2022-10-16T09:01:24;99690.25;;;14.52
45034;BMP280;30771;47.988;-4.186;2022-10-16T09:04:01;99694.00;;;14.56
45034;BMP280;30771;47.988;-4.186;2022-10-16T09:09:50;99687.16;;;14.60
45034;BMP280;30771;47.988;-4.186;2022-10-16T09:17:51;99688.03;;;14.65
45034;BMP280;30771;47.988;-4.186;2022-10-16T09:20:31;99673.50;;;14.68
45034;BMP280;30771;47.988;-4.186;2022-10-16T09:25:31;99660.56;;;14.71
45034;BMP280;30771;47.988;-4.186;2022-10-16T09:27:57;99647.19;;;14.61
45034;BMP280;30771;47.988;-4.186;2022-10-16T09:30:27;99638.25;;;14.67
45034;BMP280;30771;47.988;-4.186;2022-10-16T09:32:58;99634.59;;;14.73
45034;BMP280;30771;47.988;-4.186;2022-10-16T09:35:32;99650.94;;;14.92
45034;BMP280;30771;47.988;-4.186;2022-10-16T09:37:59;99645.41;;;14.93
45034;BMP280;30771;47.988;-4.186;2022-10-16T09:40:31;99631.59;;;14.91
45034;BMP280;30771;47.988;-4.186;2022-10-16T09:45:41;99630.25;;;14.89
45034;BMP280;30771;47.988;-4.186;2022-10-16T09:48:13;99650.81;;;15.03
45034;BMP280;30771;47.988;-4.186;2022-10-16T09:50:55;99644.19;;;15.06
45034;BMP280;30771;47.988;-4.186;2022-10-16T09:53:21;99625.63;;;15.01
45034;BMP280;30771;47.988;-4.186;2022-10-16T09:55:51;99630.44;;;15.09
45034;BMP280;30771;47.988;-4.186;2022-10-16T09:58:18;99629.75;;;15.18
45034;BMP280;30771;47.988;-4.186;2022-10-16T10:00:51;99649.00;;;15.35
45034;BMP280;30771;47.988;-4.186;2022-10-16T10:03:36;99659.13;;;15.43
45034;BMP280;30771;47.988;-4.186;2022-10-16T10:06:28;99628.03;;;15.34
45034;BMP280;30771;47.988;-4.186;2022-10-16T10:24:44;99617.88;;;15.63
45034;BMP280;30771;47.988;-4.186;2022-10-16T10:27:14;99601.97;;;15.63
45034;BMP280;30771;47.988;-4.186;2022-10-16T10:37:59;99636.38;;;15.89
45034;BMP280;30771;47.988;-4.186;2022-10-16T10:40:50;99633.19;;;15.92
45034;BMP280;30771;47.988;-4.186;2022-10-16T10:46:41;99626.63;;;16.00
45034;BMP280;30771;47.988;-4.186;2022-10-16T10:49:46;99604.34;;;16.01
45034;BMP280;30771;47.988;-4.186;2022-10-16T10:58:31;99592.38;;;16.03
45034;BMP280;30771;47.988;-4.186;2022-10-16T11:01:13;99599.53;;;16.03
45034;BMP280;30771;47.988;-4.186;2022-10-16T11:06:11;99606.47;;;16.04
45034;BMP280;30771;47.988;-4.186;2022-10-16T11:11:31;99600.56;;;16.02
45034;BMP280;30771;47.988;-4.186;2022-10-16T11:14:24;99595.25;;;16.02
45034;BMP280;30771;47.988;-4.186;2022-10-16T11:17:11;99610.97;;;16.03
45034;BMP280;30771;47.988;-4.186;2022-10-16T11:20:12;99610.72;;;16.05
45034;BMP280;30771;47.988;-4.186;2022-10-16T11:22:42;99601.41;;;16.07
45034;BMP280;30771;47.988;-4.186;2022-10-16T11:25:32;99597.97;;;16.12
45034;BMP280;30771;47.988;-4.186;2022-10-16T11:30:31;99565.31;;;16.11
45034;BMP280;30771;47.988;-4.186;2022-10-16T11:35:52;99552.91;;;16.27
45034;BMP280;30771;47.988;-4.186;2022-10-16T11:40:52;99543.09;;;16.32
45034;BMP280;30771;47.988;-4.186;2022-10-16T11:43:21;99546.81;;;16.36
45034;BMP280;30771;47.988;-4.186;2022-10-16T11:45:51;99535.09;;;16.27
45034;BMP280;30771;47.988;-4.186;2022-10-16T11:55:47;99514.94;;;16.46
45034;BMP280;30771;47.988;-4.186;2022-10-16T11:58:36;99522.94;;;16.56
45034;BMP280;30771;47.988;-4.186;2022-10-16T12:04:16;99514.44;;;16.64
45034;BMP280;30771;47.988;-4.186;2022-10-16T12:06:50;99500.63;;;16.62
45034;BMP280;30771;47.988;-4.186;2022-10-16T12:09:29;99513.91;;;16.67
45034;BMP280;30771;47.988;-4.186;2022-10-16T12:11:55;99514.44;;;16.74
45034;BMP280;30771;47.988;-4.186;2022-10-16T12:16:56;99507.50;;;16.78
45034;BMP280;30771;47.988;-4.186;2022-10-16T12:19:23;99503.00;;;16.84
45034;BMP280;30771;47.988;-4.186;2022-10-16T12:21:51;99499.25;;;16.90
45034;BMP280;30771;47.988;-4.186;2022-10-16T12:24:38;99477.97;;;16.95
45034;BMP280;30771;47.988;-4.186;2022-10-16T12:27:06;99494.47;;;17.02
45034;BMP280;30771;47.988;-4.186;2022-10-16T12:29:41;99483.56;;;17.04
45034;BMP280;30771;47.988;-4.186;2022-10-16T12:32:31;99459.09;;;17.07
45034;BMP280;30771;47.988;-4.186;2022-10-16T12:34:57;99468.91;;;17.21
45034;BMP280;30771;47.988;-4.186;2022-10-16T12:37:25;99455.84;;;17.25
45034;BMP280;30771;47.988;-4.186;2022-10-16T12:39:53;99446.50;;;17.37
45034;BMP280;30771;47.988;-4.186;2022-10-16T12:42:41;99452.88;;;17.36
45034;BMP280;30771;47.988;-4.186;2022-10-16T12:45:44;99473.06;;;17.52
45034;BMP280;30771;47.988;-4.186;2022-10-16T12:48:21;99449.69;;;17.39
45034;BMP280;30771;47.988;-4.186;2022-10-16T12:50:47;99457.13;;;17.42
45034;BMP280;30771;47.988;-4.186;2022-10-16T12:53:21;99455.75;;;17.55
45034;BMP280;30771;47.988;-4.186;2022-10-16T12:56:10;99460.22;;;17.64
45034;BMP280;30771;47.988;-4.186;2022-10-16T12:58:43;99477.25;;;17.68
45034;BMP280;30771;47.988;-4.186;2022-10-16T13:07:14;99455.78;;;17.50
45034;BMP280;30771;47.988;-4.186;2022-10-16T13:18:14;99464.56;;;17.50
45034;BMP280;30771;47.988;-4.186;2022-10-16T13:20:59;99484.22;;;17.59
45034;BMP280;30771;47.988;-4.186;2022-10-16T13:23:33;99482.06;;;17.61
45034;BMP280;30771;47.988;-4.186;2022-10-16T13:26:24;99475.66;;;17.62
45034;BMP280;30771;47.988;-4.186;2022-10-16T13:28:51;99478.09;;;17.54
45034;BMP280;30771;47.988;-4.186;2022-10-16T13:31:20;99483.16;;;17.60
45034;BMP280;30771;47.988;-4.186;2022-10-16T13:33:50;99447.56;;;17.36
45034;BMP280;30771;47.988;-4.186;2022-10-16T13:36:21;99465.13;;;17.42
45034;BMP280;30771;47.988;-4.186;2022-10-16T13:38:47;99456.31;;;17.47
45034;BMP280;30771;47.988;-4.186;2022-10-16T13:41:17;99464.31;;;17.42
45034;BMP280;30771;47.988;-4.186;2022-10-16T13:43:45;99487.69;;;17.55
45034;BMP280;30771;47.988;-4.186;2022-10-16T13:46:13;99486.38;;;17.52
45034;BMP280;30771;47.988;-4.186;2022-10-16T13:48:38;99450.50;;;17.35
45034;BMP280;30771;47.988;-4.186;2022-10-16T13:51:12;99474.94;;;17.52
45034;BMP280;30771;47.988;-4.186;2022-10-16T13:53:38;99475.75;;;17.47
45034;BMP280;30771;47.988;-4.186;2022-10-16T13:56:07;99457.97;;;17.38
45034;BMP280;30771;47.988;-4.186;2022-10-16T13:58:34;99432.91;;;17.34
45034;BMP280;30771;47.988;-4.186;2022-10-16T14:01:02;99454.69;;;17.51
45034;BMP280;30771;47.988;-4.186;2022-10-16T14:03:29;99442.69;;;17.53
45034;BMP280;30771;47.988;-4.186;2022-10-16T14:05:59;99449.81;;;17.68
45034;BMP280;30771;47.988;-4.186;2022-10-16T14:08:26;99414.16;;;17.64
45034;BMP280;30771;47.988;-4.186;2022-10-16T14:10:55;99403.53;;;17.64
45034;BMP280;30771;47.988;-4.186;2022-10-16T14:13:29;99426.88;;;17.77
45034;BMP280;30771;47.988;-4.186;2022-10-16T14:15:56;99434.56;;;17.83
45034;BMP280;30771;47.988;-4.186;2022-10-16T14:18:24;99424.97;;;17.82
45034;BMP280;30771;47.988;-4.186;2022-10-16T14:20:50;99426.03;;;17.81
45034;BMP280;30771;47.988;-4.186;2022-10-16T14:25:44;99434.00;;;17.86
45034;BMP280;30771;47.988;-4.186;2022-10-16T14:30:57;99438.59;;;17.81
45034;BMP280;30771;47.988;-4.186;2022-10-16T14:33:33;99449.97;;;17.91
45034;BMP280;30771;47.988;-4.186;2022-10-16T14:36:06;99457.44;;;17.94
45034;BMP280;30771;47.988;-4.186;2022-10-16T14:38:41;99453.47;;;17.87
45034;BMP280;30771;47.988;-4.186;2022-10-16T14:41:07;99462.47;;;17.91
45034;BMP280;30771;47.988;-4.186;2022-10-16T14:43:38;99426.13;;;17.71
45034;BMP280;30771;47.988;-4.186;2022-10-16T14:46:12;99451.94;;;17.76
45034;BMP280;30771;47.988;-4.186;2022-10-16T14:48:41;99455.03;;;17.88
45034;BMP280;30771;47.988;-4.186;2022-10-16T14:51:13;99443.41;;;17.74
45034;BMP280;30771;47.988;-4.186;2022-10-16T14:53:39;99426.66;;;17.68
45034;BMP280;30771;47.988;-4.186;2022-10-16T14:56:08;99423.50;;;17.61
45034;BMP280;30771;47.988;-4.186;2022-10-16T14:58:34;99445.25;;;17.78
45034;BMP280;30771;47.988;-4.186;2022-10-16T15:01:00;99435.19;;;17.65
45034;BMP280;30771;47.988;-4.186;2022-10-16T15:03:25;99424.00;;;17.63
45034;BMP280;30771;47.988;-4.186;2022-10-16T15:05:50;99431.16;;;17.68
45034;BMP280;30771;47.988;-4.186;2022-10-16T15:08:15;99425.63;;;17.64
45034;BMP280;30771;47.988;-4.186;2022-10-16T15:10:42;99457.53;;;17.74
45034;BMP280;30771;47.988;-4.186;2022-10-16T15:13:12;99441.59;;;17.64
45034;BMP280;30771;47.988;-4.186;2022-10-16T15:15:42;99455.41;;;17.71
45034;BMP280;30771;47.988;-4.186;2022-10-16T15:18:08;99431.75;;;17.65
45034;BMP280;30771;47.988;-4.186;2022-10-16T15:20:35;99408.88;;;17.54
45034;BMP280;30771;47.988;-4.186;2022-10-16T15:23:06;99436.28;;;17.64
45034;BMP280;30771;47.988;-4.186;2022-10-16T15:25:41;99452.47;;;17.68
45034;BMP280;30771;47.988;-4.186;2022-10-16T15:28:07;99414.47;;;17.57
45034;BMP280;30771;47.988;-4.186;2022-10-16T15:30:32;99438.69;;;17.61
45034;BMP280;30771;47.988;-4.186;2022-10-16T15:32:58;99418.22;;;17.51
45034;BMP280;30771;47.988;-4.186;2022-10-16T15:35:23;99445.59;;;17.67
45034;BMP280;30771;47.988;-4.186;2022-10-16T15:37:48;99425.13;;;17.57
45034;BMP280;30771;47.988;-4.186;2022-10-16T15:40:15;99416.66;;;17.50
45034;BMP280;30771;47.988;-4.186;2022-10-16T15:42:41;99407.06;;;17.49
45034;BMP280;30771;47.988;-4.186;2022-10-16T15:45:06;99403.13;;;17.42
45034;BMP280;30771;47.988;-4.186;2022-10-16T15:47:33;99388.75;;;17.43
45034;BMP280;30771;47.988;-4.186;2022-10-16T15:49:58;99383.13;;;17.44
45034;BMP280;30771;47.988;-4.186;2022-10-16T15:52:24;99405.97;;;17.60
45034;BMP280;30771;47.988;-4.186;2022-10-16T15:54:49;99387.13;;;17.47
45034;BMP280;30771;47.988;-4.186;2022-10-16T15:57:14;99390.81;;;17.51
45034;BMP280;30771;47.988;-4.186;2022-10-16T15:59:39;99413.69;;;17.57
45034;BMP280;30771;47.988;-4.186;2022-10-16T16:02:05;99417.09;;;17.62
45034;BMP280;30771;47.988;-4.186;2022-10-16T16:04:30;99418.44;;;17.65
45034;BMP280;30771;47.988;-4.186;2022-10-16T16:06:55;99415.50;;;17.66
45034;BMP280;30771;47.988;-4.186;2022-10-16T16:09:20;99414.13;;;17.69
45034;BMP280;30771;47.988;-4.186;2022-10-16T16:11:46;99381.78;;;17.52
45034;BMP280;30771;47.988;-4.186;2022-10-16T16:14:14;99412.88;;;17.61
45034;BMP280;30771;47.988;-4.186;2022-10-16T16:16:39;99430.41;;;17.67
45034;BMP280;30771;47.988;-4.186;2022-10-16T16:19:05;99416.84;;;17.59
45034;BMP280;30771;47.988;-4.186;2022-10-16T16:21:30;99431.78;;;17.60
45034;BMP280;30771;47.988;-4.186;2022-10-16T16:23:55;99444.28;;;17.59
45034;BMP280;30771;47.988;-4.186;2022-10-16T16:26:28;99412.69;;;17.48
45034;BMP280;30771;47.988;-4.186;2022-10-16T16:28:54;99413.22;;;17.45
45034;BMP280;30771;47.988;-4.186;2022-10-16T16:31:20;99430.16;;;17.59
45034;BMP280;30771;47.988;-4.186;2022-10-16T16:33:45;99439.25;;;17.53
45034;BMP280;30771;47.988;-4.186;2022-10-16T16:36:10;99431.00;;;17.49
45034;BMP280;30771;47.988;-4.186;2022-10-16T16:38:36;99417.72;;;17.44
45034;BMP280;30771;47.988;-4.186;2022-10-16T16:41:15;99408.97;;;17.34
45034;BMP280;30771;47.988;-4.186;2022-10-16T16:43:42;99443.81;;;17.47
45034;BMP280;30771;47.988;-4.186;2022-10-16T16:46:07;99438.19;;;17.49
45034;BMP280;30771;47.988;-4.186;2022-10-16T16:48:33;99426.28;;;17.31
45034;BMP280;30771;47.988;-4.186;2022-10-16T16:51:09;99441.97;;;17.48
45034;BMP280;30771;47.988;-4.186;2022-10-16T16:53:35;99436.88;;;17.46
45034;BMP280;30771;47.988;-4.186;2022-10-16T16:56:05;99420.72;;;17.38
45034;BMP280;30771;47.988;-4.186;2022-10-16T16:58:31;99438.50;;;17.42
45034;BMP280;30771;47.988;-4.186;2022-10-16T17:00:57;99434.25;;;17.41
45034;BMP280;30771;47.988;-4.186;2022-10-16T17:03:22;99435.31;;;17.40
45034;BMP280;30771;47.988;-4.186;2022-10-16T17:06:07;99440.06;;;17.43
45034;BMP280;30771;47.988;-4.186;2022-10-16T17:08:34;99434.03;;;17.33
45034;BMP280;30771;47.988;-4.186;2022-10-16T17:10:59;99441.19;;;17.37
45034;BMP280;30771;47.988;-4.186;2022-10-16T17:13:27;99433.22;;;17.37
45034;BMP280;30771;47.988;-4.186;2022-10-16T17:15:53;99426.56;;;17.30
45034;BMP280;30771;47.988;-4.186;2022-10-16T17:18:21;99420.47;;;17.24
45034;BMP280;30771;47.988;-4.186;2022-10-16T17:20:46;99437.19;;;17.35
45034;BMP280;30771;47.988;-4.186;2022-10-16T17:23:12;99452.03;;;17.46
45034;BMP280;30771;47.988;-4.186;2022-10-16T17:25:38;99455.50;;;17.46
45034;BMP280;30771;47.988;-4.186;2022-10-16T17:28:05;99463.78;;;17.45
45034;BMP280;30771;47.988;-4.186;2022-10-16T17:30:31;99456.63;;;17.35
45034;BMP280;30771;47.988;-4.186;2022-10-16T17:32:56;99446.81;;;17.31
45034;BMP280;30771;47.988;-4.186;2022-10-16T17:35:22;99449.19;;;17.27
45034;BMP280;30771;47.988;-4.186;2022-10-16T17:37:47;99470.16;;;17.39
45034;BMP280;30771;47.988;-4.186;2022-10-16T17:40:12;99468.84;;;17.36
45034;BMP280;30771;47.988;-4.186;2022-10-16T17:42:37;99489.06;;;17.42
45034;BMP280;30771;47.988;-4.186;2022-10-16T17:45:03;99459.06;;;17.22
45034;BMP280;30771;47.988;-4.186;2022-10-16T17:47:28;99484.28;;;17.34
45034;BMP280;30771;47.988;-4.186;2022-10-16T17:49:54;99498.38;;;17.40
45034;BMP280;30771;47.988;-4.186;2022-10-16T17:52:19;99491.22;;;17.35
45034;BMP280;30771;47.988;-4.186;2022-10-16T17:54:44;99496.53;;;17.35
45034;BMP280;30771;47.988;-4.186;2022-10-16T17:57:10;99506.63;;;17.38
45034;BMP280;30771;47.988;-4.186;2022-10-16T17:59:35;99478.75;;;17.21
45034;BMP280;30771;47.988;-4.186;2022-10-16T18:02:01;99512.72;;;17.44
45034;BMP280;30771;47.988;-4.186;2022-10-16T18:04:26;99500.25;;;17.34
45034;BMP280;30771;47.988;-4.186;2022-10-16T18:06:51;99520.72;;;17.44
45034;BMP280;30771;47.988;-4.186;2022-10-16T18:09:17;99518.84;;;17.44
45034;BMP280;30771;47.988;-4.186;2022-10-16T18:11:44;99518.03;;;17.44
45034;BMP280;30771;47.988;-4.186;2022-10-16T18:14:13;99516.72;;;17.46
45034;BMP280;30771;47.988;-4.186;2022-10-16T18:16:38;99519.41;;;17.41
45034;BMP280;30771;47.988;-4.186;2022-10-16T18:19:04;99506.38;;;17.35
45034;BMP280;30771;47.988;-4.186;2022-10-16T18:21:29;99527.38;;;17.41
45034;BMP280;30771;47.988;-4.186;2022-10-16T18:23:57;99511.72;;;17.30
45034;BMP280;30771;47.988;-4.186;2022-10-16T18:26:23;99482.75;;;17.18
45034;BMP280;30771;47.988;-4.186;2022-10-16T18:28:51;99497.38;;;17.26
45034;BMP280;30771;47.988;-4.186;2022-10-16T18:31:17;99514.38;;;17.35
45034;BMP280;30771;47.988;-4.186;2022-10-16T18:33:43;99489.13;;;17.22
45034;BMP280;30771;47.988;-4.186;2022-10-16T18:36:10;99488.03;;;17.28
45034;BMP280;30771;47.988;-4.186;2022-10-16T18:38:36;99498.66;;;17.33
45034;BMP280;30771;47.988;-4.186;2022-10-16T18:41:02;99498.66;;;17.38
45034;BMP280;30771;47.988;-4.186;2022-10-16T18:43:28;99494.44;;;17.27
45034;BMP280;30771;47.988;-4.186;2022-10-16T18:46:01;99490.16;;;17.26
45034;BMP280;30771;47.988;-4.186;2022-10-16T18:48:27;99510.09;;;17.29
45034;BMP280;30771;47.988;-4.186;2022-10-16T18:50:53;99512.75;;;17.29
45034;BMP280;30771;47.988;-4.186;2022-10-16T18:53:19;99529.28;;;17.36
45034;BMP280;30771;47.988;-4.186;2022-10-16T18:55:51;99521.31;;;17.31
45034;BMP280;30771;47.988;-4.186;2022-10-16T18:58:16;99509.59;;;17.27
45034;BMP280;30771;47.988;-4.186;2022-10-16T19:00:41;99532.72;;;17.36
45034;BMP280;30771;47.988;-4.186;2022-10-16T19:03:06;99518.38;;;17.27
45034;BMP280;30771;47.988;-4.186;2022-10-16T19:05:32;99511.44;;;17.26
45034;BMP280;30771;47.988;-4.186;2022-10-16T19:07:58;99498.41;;;17.20
45034;BMP280;30771;47.988;-4.186;2022-10-16T19:10:23;99499.50;;;17.19
45034;BMP280;30771;47.988;-4.186;2022-10-16T19:12:48;99511.47;;;17.21
45034;BMP280;30771;47.988;-4.186;2022-10-16T19:15:14;99515.19;;;17.20
45034;BMP280;30771;47.988;-4.186;2022-10-16T19:17:39;99510.41;;;17.17
45034;BMP280;30771;47.988;-4.186;2022-10-16T19:20:05;99513.06;;;17.17
45034;BMP280;30771;47.988;-4.186;2022-10-16T19:22:30;99510.16;;;17.14
45034;BMP280;30771;47.988;-4.186;2022-10-16T19:24:56;99512.53;;;17.20
45034;BMP280;30771;47.988;-4.186;2022-10-16T19:27:21;99527.41;;;17.26
45034;BMP280;30771;47.988;-4.186;2022-10-16T19:29:47;99490.22;;;17.06
45034;BMP280;30771;47.988;-4.186;2022-10-16T19:32:12;99510.91;;;17.19
45034;BMP280;30771;47.988;-4.186;2022-10-16T19:34:37;99516.53;;;17.18
45034;BMP280;30771;47.988;-4.186;2022-10-16T19:37:03;99513.59;;;17.14
45034;BMP280;30771;47.988;-4.186;2022-10-16T19:39:28;99537.00;;;17.22
45034;BMP280;30771;47.988;-4.186;2022-10-16T19:41:53;99522.69;;;17.13
45034;BMP280;30771;47.988;-4.186;2022-10-16T19:44:19;99532.22;;;17.09
45034;BMP280;30771;47.988;-4.186;2022-10-16T19:46:45;99514.97;;;16.92
45034;BMP280;30771;47.988;-4.186;2022-10-16T19:49:13;99548.16;;;17.09
45034;BMP280;30771;47.988;-4.186;2022-10-16T19:51:38;99534.13;;;16.99
45034;BMP280;30771;47.988;-4.186;2022-10-16T19:54:07;99551.94;;;17.03
45034;BMP280;30771;47.988;-4.186;2022-10-16T19:56:33;99535.97;;;16.98
45034;BMP280;30771;47.988;-4.186;2022-10-16T19:58:59;99551.63;;;17.10
45034;BMP280;30771;47.988;-4.186;2022-10-16T20:01:27;99538.09;;;17.01
45034;BMP280;30771;47.988;-4.186;2022-10-16T20:03:52;99546.63;;;17.03
45034;BMP280;30771;47.988;-4.186;2022-10-16T20:06:19;99553.25;;;17.06
45034;BMP280;30771;47.988;-4.186;2022-10-16T20:08:46;99538.34;;;16.94
45034;BMP280;30771;47.988;-4.186;2022-10-16T20:11:14;99544.72;;;16.93
45034;BMP280;30771;47.988;-4.186;2022-10-16T20:13:39;99556.16;;;17.04
45034;BMP280;30771;47.988;-4.186;2022-10-16T20:16:05;99540.75;;;16.91
45034;BMP280;30771;47.988;-4.186;2022-10-16T20:18:31;99555.41;;;16.99
45034;BMP280;30771;47.988;-4.186;2022-10-16T20:20:57;99565.75;;;17.15
45034;BMP280;30771;47.988;-4.186;2022-10-16T20:23:22;99554.28;;;17.05
45034;BMP280;30771;47.988;-4.186;2022-10-16T20:25:47;99562.28;;;17.00
45034;BMP280;30771;47.988;-4.186;2022-10-16T20:28:16;99529.84;;;16.87
45034;BMP280;30771;47.988;-4.186;2022-10-16T20:30:43;99554.88;;;17.02
45034;BMP280;30771;47.988;-4.186;2022-10-16T20:33:09;99568.41;;;17.10
45034;BMP280;30771;47.988;-4.186;2022-10-16T20:35:43;99581.44;;;17.07
45034;BMP280;30771;47.988;-4.186;2022-10-16T20:38:09;99568.66;;;16.93
45034;BMP280;30771;47.988;-4.186;2022-10-16T20:40:36;99577.19;;;16.96
45034;BMP280;30771;47.988;-4.186;2022-10-16T20:43:03;99582.78;;;16.94
45034;BMP280;30771;47.988;-4.186;2022-10-16T20:45:28;99568.41;;;16.85
45034;BMP280;30771;47.988;-4.186;2022-10-16T20:47:54;99584.88;;;16.92
45034;BMP280;30771;47.988;-4.186;2022-10-16T20:50:19;99545.03;;;16.72
45034;BMP280;30771;47.988;-4.186;2022-10-16T20:52:45;99575.84;;;16.83
45034;BMP280;30771;47.988;-4.186;2022-10-16T20:55:10;99588.34;;;16.87
45034;BMP280;30771;47.988;-4.186;2022-10-16T20:57:36;99556.97;;;16.69
45034;BMP280;30771;47.988;-4.186;2022-10-16T21:00:02;99585.41;;;16.79
45034;BMP280;30771;47.988;-4.186;2022-10-16T21:02:27;99560.41;;;16.60
45034;BMP280;30771;47.988;-4.186;2022-10-16T21:04:52;99571.28;;;16.58
45034;BMP280;30771;47.988;-4.186;2022-10-16T21:07:18;99574.22;;;16.52
45034;BMP280;30771;47.988;-4.186;2022-10-16T21:09:43;99603.50;;;16.67
45034;BMP280;30771;47.988;-4.186;2022-10-16T21:12:09;99583.78;;;16.53
45034;BMP280;30771;47.988;-4.186;2022-10-16T21:14:34;99581.13;;;16.48
45034;BMP280;30771;47.988;-4.186;2022-10-16T21:17:00;99604.50;;;16.56
45034;BMP280;30771;47.988;-4.186;2022-10-16T21:19:28;99609.81;;;16.46
45034;BMP280;30771;47.988;-4.186;2022-10-16T21:21:53;99596.22;;;16.32
45034;BMP280;30771;47.988;-4.186;2022-10-16T21:24:18;99608.72;;;16.32
45034;BMP280;30771;47.988;-4.186;2022-10-16T21:26:44;99630.47;;;16.34
45034;BMP280;30771;47.988;-4.186;2022-10-16T21:29:10;99639.81;;;16.41
45034;BMP280;30771;47.988;-4.186;2022-10-16T21:31:35;99642.19;;;16.38
45034;BMP280;30771;47.988;-4.186;2022-10-16T21:34:01;99634.19;;;16.33
45034;BMP280;30771;47.988;-4.186;2022-10-16T21:36:30;99648.06;;;16.40
45034;BMP280;30771;47.988;-4.186;2022-10-16T21:39:01;99629.66;;;16.33
45034;BMP280;30771;47.988;-4.186;2022-10-16T21:41:27;99636.34;;;16.36
45034;BMP280;30771;47.988;-4.186;2022-10-16T21:43:55;99630.47;;;16.34